createdAt,value
2018-11-11T00:00:47.121Z,100.00
2018-11-11T00:03:16.132Z,100.00
2018-11-11T00:05:50.268Z,100.00
2018-11-11T00:08:24.332Z,100.00
2018-11-11T00:11:11.208Z,100.00
2018-11-11T00:13:40.244Z,100.00
2018-11-11T00:16:15.607Z,100.00
2018-11-11T00:21:44.598Z,100.00
2018-11-11T00:24:19.197Z,100.00
2018-11-11T00:26:54.840Z,100.00
2018-11-11T00:29:23.717Z,100.00
2018-11-11T00:31:55.838Z,100.00
2018-11-11T00:34:25.828Z,100.00
2018-11-11T00:36:55.081Z,100.00
2018-11-11T00:39:23.985Z,100.00
2018-11-11T00:41:52.938Z,100.00
2018-11-11T00:44:23.001Z,100.00
2018-11-11T00:46:51.922Z,100.00
2018-11-11T00:49:20.895Z,100.00
2018-11-11T00:52:00.842Z,100.00
2018-11-11T00:54:34.979Z,100.00
2018-11-11T00:57:14.338Z,100.00
2018-11-11T00:59:48.677Z,100.00
2018-11-11T01:02:17.685Z,100.00
2018-11-11T01:04:46.602Z,100.00
2018-11-11T01:10:15.719Z,100.00
2018-11-11T01:12:55.854Z,100.00
2018-11-11T01:15:34.688Z,100.00
2018-11-11T01:18:03.556Z,100.00
2018-11-11T01:20:32.523Z,100.00
2018-11-11T01:23:12.868Z,100.00
2018-11-11T01:25:41.795Z,100.00
2018-11-11T01:28:14.128Z,100.00
2018-11-11T01:30:43.013Z,100.00
2018-11-11T01:33:12.957Z,100.00
2018-11-11T01:35:55.132Z,100.00
2018-11-11T01:38:37.885Z,100.00
2018-11-11T01:41:12.310Z,100.00
2018-11-11T01:43:41.217Z,100.00
2018-11-11T01:46:10.139Z,100.00
2018-11-11T01:48:46.644Z,100.00
2018-11-11T01:51:22.258Z,100.00
2018-11-11T01:53:59.181Z,99.85
2018-11-11T01:56:29.286Z,99.82
2018-11-11T01:58:58.414Z,100.00
2018-11-11T02:01:29.431Z,100.00
2018-11-11T02:03:58.312Z,100.00
2018-11-11T02:06:27.185Z,99.96
2018-11-11T02:08:56.151Z,100.00
2018-11-11T02:11:25.394Z,100.00
2018-11-11T02:13:54.396Z,100.00
2018-11-11T02:16:23.539Z,99.93
2018-11-11T02:18:52.478Z,100.00
2018-11-11T02:21:21.428Z,100.00
2018-11-11T02:23:54.209Z,99.51
2018-11-11T02:26:36.804Z,99.37
2018-11-11T02:29:05.929Z,99.98
2018-11-11T02:31:39.382Z,98.94
2018-11-11T02:34:08.266Z,99.92
2018-11-11T02:36:37.474Z,99.21
2018-11-11T02:39:07.826Z,98.75
2018-11-11T02:41:36.743Z,99.27
2018-11-11T02:52:47.850Z,97.72
2018-11-11T02:55:37.120Z,97.69
2018-11-11T02:58:09.870Z,97.06
2018-11-11T03:00:38.824Z,98.00
2018-11-11T03:03:07.652Z,97.66
2018-11-11T03:05:36.575Z,97.56
2018-11-11T03:11:00.316Z,97.37
2018-11-11T03:13:29.206Z,96.43
2018-11-11T03:15:58.090Z,97.12
2018-11-11T03:18:29.008Z,96.38
2018-11-11T03:20:57.893Z,96.72
2018-11-11T03:23:26.745Z,96.17
2018-11-11T03:25:55.655Z,96.46
2018-11-11T03:28:24.557Z,96.15
2018-11-11T03:30:53.508Z,95.69
2018-11-11T03:33:22.441Z,95.44
2018-11-11T03:35:51.297Z,95.57
2018-11-11T03:38:36.099Z,95.53
2018-11-11T03:41:11.732Z,95.04
2018-11-11T03:43:40.667Z,95.43
2018-11-11T03:46:09.739Z,95.19
2018-11-11T03:48:39.701Z,95.20
2018-11-11T03:54:03.480Z,95.18
2018-11-11T03:56:32.416Z,93.71
2018-11-11T03:59:21.793Z,93.72
2018-11-11T04:01:50.654Z,94.00
2018-11-11T04:04:19.536Z,94.39
2018-11-11T04:06:48.550Z,93.56
2018-11-11T04:09:29.700Z,93.45
2018-11-11T04:11:58.572Z,93.63
2018-11-11T04:14:27.442Z,92.97
2018-11-11T04:16:56.351Z,93.37
2018-11-11T04:19:37.578Z,92.85
2018-11-11T04:27:56.442Z,92.99
2018-11-11T04:30:25.358Z,93.03
2018-11-11T04:32:54.265Z,92.93
2018-11-11T04:35:23.198Z,92.69
2018-11-11T04:37:56.570Z,92.79
2018-11-11T04:40:33.832Z,93.05
2018-11-11T04:43:13.692Z,91.94
2018-11-11T04:46:01.045Z,91.90
2018-11-11T04:48:29.958Z,91.48
2018-11-11T04:53:57.914Z,91.74
2018-11-11T04:59:32.238Z,91.92
2018-11-11T05:02:01.120Z,90.80
2018-11-11T05:04:35.434Z,90.62
2018-11-11T05:07:04.324Z,91.28
2018-11-11T05:09:33.297Z,91.57
2018-11-11T05:12:25.868Z,91.96
2018-11-11T05:15:12.705Z,90.89
2018-11-11T05:17:48.926Z,91.11
2018-11-11T05:20:17.833Z,91.71
2018-11-11T05:22:51.928Z,91.02
2018-11-11T05:25:33.296Z,91.35
2018-11-11T05:28:02.238Z,91.05
2018-11-11T05:30:31.132Z,91.85
2018-11-11T05:33:00.001Z,91.37
2018-11-11T05:38:36.397Z,90.77
2018-11-11T05:41:05.566Z,90.48
2018-11-11T05:43:38.260Z,90.48
2018-11-11T05:49:19.471Z,90.38
2018-11-11T05:51:48.395Z,89.48
2018-11-11T05:54:17.299Z,90.51
2018-11-11T05:56:46.185Z,90.10
2018-11-11T05:59:15.070Z,90.11
2018-11-11T06:04:54.294Z,91.21
2018-11-11T06:07:33.646Z,91.64
2018-11-11T06:10:07.420Z,93.14
2018-11-11T06:12:52.815Z,94.07
2018-11-11T06:15:26.657Z,93.34
2018-11-11T06:18:06.183Z,93.65
2018-11-11T06:20:35.091Z,93.55
2018-11-11T06:23:04.008Z,93.92
2018-11-11T06:25:32.918Z,95.06
2018-11-11T06:28:19.967Z,95.45
2018-11-11T06:30:52.678Z,95.89
2018-11-11T06:33:21.623Z,96.29
2018-11-11T06:35:50.571Z,97.02
2018-11-11T06:38:21.584Z,97.20
2018-11-11T06:40:53.882Z,98.20
2018-11-11T06:43:24.818Z,98.42
2018-11-11T06:46:11.191Z,97.66
2018-11-11T06:48:40.112Z,98.16
2018-11-11T06:51:27.596Z,97.62
2018-11-11T06:54:13.329Z,97.49
2018-11-11T06:56:50.308Z,97.19
2018-11-11T06:59:20.613Z,97.74
2018-11-11T07:01:56.096Z,97.98
2018-11-11T07:07:36.766Z,96.78
2018-11-11T07:15:52.891Z,94.90
2018-11-11T07:18:32.928Z,94.15
2018-11-11T07:24:07.654Z,93.52
2018-11-11T07:26:40.056Z,93.74
2018-11-11T07:29:09.914Z,93.18
2018-11-11T07:31:39.894Z,93.00
2018-11-11T07:34:33.208Z,93.47
2018-11-11T07:37:02.166Z,93.22
2018-11-11T07:42:27.294Z,92.97
2018-11-11T07:45:00.120Z,93.01
2018-11-11T07:47:36.708Z,91.97
2018-11-11T07:50:17.377Z,92.64
2018-11-11T07:52:46.544Z,91.88
2018-11-11T07:55:21.144Z,91.13
2018-11-11T07:58:03.164Z,90.76
2018-11-11T08:00:32.152Z,90.51
2018-11-11T08:03:07.430Z,90.58
2018-11-11T08:05:39.748Z,89.43
2018-11-11T08:08:13.538Z,88.85
2018-11-11T08:10:55.855Z,89.17
2018-11-11T08:13:30.435Z,88.74
2018-11-11T08:16:05.267Z,88.17
2018-11-11T08:18:40.024Z,87.47
2018-11-11T08:21:11.976Z,87.07
2018-11-11T08:23:59.500Z,86.72
2018-11-11T08:26:33.404Z,85.94
2018-11-11T08:29:04.122Z,86.55
2018-11-11T08:31:38.594Z,86.06
2018-11-11T08:34:17.846Z,85.65
2018-11-11T08:36:52.127Z,86.33
2018-11-11T08:39:21.161Z,86.20
2018-11-11T08:41:50.081Z,85.59
2018-11-11T08:44:29.102Z,86.43
2018-11-11T08:46:58.058Z,86.10
2018-11-11T08:49:29.156Z,85.97
2018-11-11T08:51:59.107Z,85.64
2018-11-11T08:57:22.362Z,87.36
2018-11-11T08:59:56.013Z,88.23
2018-11-11T09:02:36.222Z,87.79
2018-11-11T09:05:09.765Z,87.34
2018-11-11T09:07:44.923Z,86.28
2018-11-11T09:13:26.324Z,85.96
2018-11-11T09:15:55.290Z,85.75
2018-11-11T09:18:42.633Z,85.24
2018-11-11T09:21:14.954Z,84.97
2018-11-11T09:23:45.926Z,83.64
2018-11-11T09:26:16.924Z,84.07
2018-11-11T09:28:52.202Z,83.30
2018-11-11T09:31:35.838Z,83.35
2018-11-11T09:34:09.488Z,82.36
2018-11-11T09:36:42.562Z,83.65
2018-11-11T09:39:12.540Z,82.50
2018-11-11T09:44:34.918Z,82.37
2018-11-11T09:47:04.047Z,81.85
2018-11-11T09:49:33.037Z,82.38
2018-11-11T09:52:02.036Z,81.26
2018-11-11T09:54:31.024Z,80.31
2018-11-11T09:56:59.894Z,81.90
2018-11-11T09:59:28.814Z,80.60
2018-11-11T10:01:57.768Z,80.20
2018-11-11T10:05:30.490Z,79.40
2018-11-11T10:08:04.721Z,80.00
2018-11-11T10:11:39.759Z,78.48
2018-11-11T10:14:12.851Z,78.42
2018-11-11T10:17:02.107Z,78.32
2018-11-11T10:19:35.407Z,77.47
2018-11-11T10:22:15.285Z,77.19
2018-11-11T10:24:53.182Z,76.76
2018-11-11T10:27:27.396Z,76.68
2018-11-11T10:30:03.296Z,76.13
2018-11-11T10:32:48.866Z,74.04
2018-11-11T10:35:35.622Z,74.23
2018-11-11T10:38:12.598Z,73.62
2018-11-11T10:40:45.869Z,74.21
2018-11-11T10:43:36.872Z,73.99
2018-11-11T10:46:11.430Z,73.20
2018-11-11T10:48:53.420Z,72.56
2018-11-11T10:51:22.364Z,73.77
2018-11-11T10:53:58.363Z,74.05
2018-11-11T10:56:27.754Z,73.01
2018-11-11T10:58:57.784Z,73.16
2018-11-11T11:01:26.750Z,73.15
2018-11-11T11:03:55.659Z,73.67
2018-11-11T11:06:34.854Z,73.68
2018-11-11T11:09:10.661Z,72.83
2018-11-11T11:17:38.073Z,74.25
2018-11-11T11:20:07.476Z,74.42
2018-11-11T11:22:36.399Z,74.56
2018-11-11T11:25:26.047Z,74.85
2018-11-11T11:27:54.906Z,74.82
2018-11-11T11:30:33.913Z,75.33
2018-11-11T11:33:02.858Z,75.32
2018-11-11T11:35:31.764Z,74.11
2018-11-11T11:38:00.789Z,74.29
2018-11-11T11:40:29.654Z,73.48
2018-11-11T11:42:58.560Z,74.02
2018-11-11T11:45:27.551Z,73.07
2018-11-11T11:47:56.515Z,72.54
2018-11-11T11:50:25.447Z,71.35
2018-11-11T11:52:54.500Z,71.95
2018-11-11T11:55:23.406Z,72.16
2018-11-11T11:58:07.209Z,71.11
2018-11-11T12:00:36.022Z,71.29
2018-11-11T12:03:04.931Z,71.99
2018-11-11T12:05:50.111Z,71.87
2018-11-11T12:08:19.105Z,71.80
2018-11-11T12:10:59.991Z,71.82
2018-11-11T12:13:28.867Z,72.16
2018-11-11T12:15:57.984Z,72.00
2018-11-11T12:18:26.884Z,71.17
2018-11-11T12:20:55.734Z,71.19
2018-11-11T12:23:24.706Z,71.55
2018-11-11T12:25:53.525Z,72.01
2018-11-11T12:28:22.437Z,71.70
2018-11-11T12:30:51.399Z,71.10
2018-11-11T12:33:20.279Z,71.76
2018-11-11T12:35:49.177Z,71.87
2018-11-11T12:38:37.930Z,72.24
2018-11-11T12:41:06.950Z,72.68
2018-11-11T12:43:35.969Z,71.99
2018-11-11T12:46:04.861Z,72.26
2018-11-11T12:48:51.920Z,73.04
2018-11-11T12:51:20.768Z,73.76
2018-11-11T12:53:49.657Z,74.29
2018-11-11T12:56:18.585Z,75.90
2018-11-11T12:58:47.522Z,77.95
2018-11-11T13:01:16.506Z,80.38
2018-11-11T13:03:45.537Z,81.95
2018-11-11T13:06:17.371Z,82.66
2018-11-11T13:08:46.359Z,82.98
2018-11-11T13:11:21.053Z,84.05
2018-11-11T13:13:50.047Z,85.18
2018-11-11T13:16:18.992Z,87.26
2018-11-11T13:18:48.024Z,88.35
2018-11-11T13:21:16.935Z,89.89
2018-11-11T13:23:45.859Z,90.64
2018-11-11T13:26:14.881Z,90.87
2018-11-11T13:28:44.363Z,92.51
2018-11-11T13:31:13.410Z,93.13
2018-11-11T13:33:42.425Z,93.75
2018-11-11T13:36:11.327Z,93.45
2018-11-11T13:38:42.326Z,94.27
2018-11-11T13:41:12.270Z,97.20
2018-11-11T13:43:42.331Z,94.64
2018-11-11T13:46:25.264Z,94.26
2018-11-11T13:49:00.113Z,96.28
2018-11-11T13:51:41.893Z,95.69
2018-11-11T13:54:11.089Z,97.63
2018-11-11T13:59:39.373Z,97.94
2018-11-11T14:02:19.324Z,98.27
2018-11-11T14:04:55.167Z,98.54
2018-11-11T14:07:24.257Z,97.28
2018-11-11T14:09:54.263Z,97.04
2018-11-11T14:12:30.390Z,96.88
2018-11-11T14:15:01.343Z,96.40
2018-11-11T14:17:30.424Z,95.01
2018-11-11T14:20:00.674Z,95.29
2018-11-11T14:22:31.781Z,95.01
2018-11-11T14:25:01.798Z,93.16
2018-11-11T14:27:31.284Z,93.03
2018-11-11T14:30:01.271Z,92.69
2018-11-11T14:32:33.895Z,93.03
2018-11-11T14:35:02.881Z,90.23
2018-11-11T14:37:35.845Z,90.35
2018-11-11T14:40:18.754Z,87.33
2018-11-11T14:42:52.081Z,86.10
2018-11-11T14:45:22.592Z,85.29
2018-11-11T14:47:58.676Z,85.57
2018-11-11T14:50:31.756Z,86.43
2018-11-11T14:53:00.849Z,86.35
2018-11-11T14:55:35.573Z,86.50
2018-11-11T15:01:18.994Z,87.46
2018-11-11T15:03:54.386Z,86.67
2018-11-11T15:06:27.601Z,87.08
2018-11-11T15:09:17.206Z,87.64
2018-11-11T15:11:46.158Z,88.24
2018-11-11T15:14:19.672Z,88.79
2018-11-11T15:16:49.817Z,88.56
2018-11-11T15:19:26.106Z,88.80
2018-11-11T15:22:04.751Z,88.79
2018-11-11T15:24:34.273Z,89.67
2018-11-11T15:27:04.566Z,89.45
2018-11-11T15:29:33.485Z,89.75
2018-11-11T15:32:17.266Z,90.32
2018-11-11T15:35:05.147Z,90.94
2018-11-11T15:37:34.155Z,91.81
2018-11-11T15:40:10.288Z,92.38
2018-11-11T15:42:39.558Z,93.05
2018-11-11T15:45:14.126Z,94.05
2018-11-11T15:47:43.511Z,95.35
2018-11-11T15:50:20.681Z,95.78
2018-11-11T15:52:59.236Z,97.04
2018-11-11T15:55:29.528Z,96.69
2018-11-11T15:57:59.746Z,98.40
2018-11-11T16:00:33.163Z,99.44
2018-11-11T16:03:03.092Z,99.34
2018-11-11T16:05:32.079Z,99.58
2018-11-11T16:08:11.103Z,100.00
2018-11-11T16:10:58.304Z,100.00
2018-11-11T16:13:28.240Z,100.00
2018-11-11T16:16:03.365Z,100.00
2018-11-11T16:18:32.381Z,100.00
2018-11-11T16:21:17.620Z,100.00
2018-11-11T16:23:52.083Z,100.00
2018-11-11T16:26:30.878Z,100.00
2018-11-11T16:29:00.874Z,100.00
2018-11-11T16:31:36.419Z,100.00
2018-11-11T16:34:12.214Z,100.00
2018-11-11T16:36:46.913Z,100.00
2018-11-11T16:39:22.531Z,100.00
2018-11-11T16:41:51.439Z,100.00
2018-11-11T16:44:21.419Z,100.00
2018-11-11T16:46:55.673Z,100.00
2018-11-11T16:49:25.590Z,100.00
2018-11-11T16:52:02.177Z,100.00
2018-11-11T16:54:31.051Z,100.00
2018-11-11T16:57:05.906Z,100.00
2018-11-11T16:59:35.962Z,100.00
2018-11-11T17:02:05.108Z,100.00
2018-11-11T17:04:34.014Z,100.00
2018-11-11T17:07:02.910Z,100.00
2018-11-11T17:09:35.930Z,100.00
2018-11-11T17:12:17.708Z,99.92
2018-11-11T17:14:46.736Z,100.00
2018-11-11T17:17:19.650Z,99.86
2018-11-11T17:19:58.774Z,99.84
2018-11-11T17:22:31.267Z,99.80
2018-11-11T17:25:03.843Z,99.63
2018-11-11T17:27:37.828Z,99.43
2018-11-11T17:30:19.730Z,98.27
2018-11-11T17:32:52.926Z,96.96
2018-11-11T17:35:21.933Z,96.14
2018-11-11T17:37:56.851Z,95.20
2018-11-11T17:40:32.410Z,96.20
2018-11-11T17:43:07.188Z,95.46
2018-11-11T17:45:36.267Z,96.04
2018-11-11T17:48:05.586Z,96.02
2018-11-11T17:50:34.736Z,95.50
2018-11-11T17:53:08.744Z,95.90
2018-11-11T17:55:47.716Z,95.98
2018-11-11T17:58:30.987Z,96.75
2018-11-11T18:01:01.167Z,98.03
2018-11-11T18:03:40.734Z,98.53
2018-11-11T18:06:14.239Z,99.74
2018-11-11T18:08:45.248Z,100.00
2018-11-11T18:11:19.082Z,100.00
2018-11-11T18:14:11.266Z,100.00
2018-11-11T18:16:40.164Z,100.00
2018-11-11T18:19:12.950Z,100.00
2018-11-11T18:21:53.638Z,100.00
2018-11-11T18:24:24.596Z,100.00
2018-11-11T18:26:53.900Z,100.00
2018-11-11T18:29:22.777Z,100.00
2018-11-11T18:31:51.892Z,100.00
2018-11-11T18:34:26.475Z,100.00
2018-11-11T18:36:55.588Z,100.00
2018-11-11T18:39:28.598Z,100.00
2018-11-11T18:41:57.592Z,100.00
2018-11-11T18:44:31.500Z,100.00
2018-11-11T18:47:01.481Z,100.00
2018-11-11T18:49:37.099Z,100.00
2018-11-11T18:52:29.316Z,100.00
2018-11-11T18:55:04.112Z,100.00
2018-11-11T18:57:33.367Z,100.00
2018-11-11T19:00:03.308Z,100.00
2018-11-11T19:02:32.265Z,100.00
2018-11-11T19:05:02.387Z,100.00
2018-11-11T19:07:32.304Z,100.00
2018-11-11T19:10:07.617Z,100.00
2018-11-11T19:12:36.464Z,100.00
2018-11-11T19:15:07.619Z,100.00
2018-11-11T19:17:43.267Z,100.00
2018-11-11T19:20:14.566Z,100.00
2018-11-11T19:22:43.501Z,100.00
2018-11-11T19:25:25.164Z,100.00
2018-11-11T19:27:54.880Z,100.00
2018-11-11T19:30:25.555Z,100.00
2018-11-11T19:33:04.979Z,100.00
2018-11-11T19:35:33.930Z,100.00
2018-11-11T19:38:02.903Z,100.00
2018-11-11T19:40:36.202Z,100.00
2018-11-11T19:43:06.240Z,100.00
2018-11-11T19:45:36.199Z,100.00
2018-11-11T19:48:06.621Z,100.00
2018-11-11T19:50:36.682Z,100.00
2018-11-11T19:53:05.867Z,100.00
2018-11-11T19:55:35.919Z,100.00
2018-11-11T19:58:06.143Z,100.00
2018-11-11T20:00:35.167Z,100.00
2018-11-11T20:03:04.659Z,100.00
2018-11-11T20:05:34.732Z,100.00
2018-11-11T20:08:10.095Z,100.00
2018-11-11T20:10:49.160Z,100.00
2018-11-11T20:13:25.111Z,100.00
2018-11-11T20:16:01.796Z,100.00
2018-11-11T20:18:30.864Z,100.00
2018-11-11T20:21:03.049Z,100.00
2018-11-11T20:23:34.058Z,100.00
2018-11-11T20:26:06.160Z,100.00
2018-11-11T20:28:37.218Z,100.00
2018-11-11T20:31:06.253Z,100.00
2018-11-11T20:33:35.159Z,100.00
2018-11-11T20:36:10.356Z,100.00
2018-11-11T20:38:39.397Z,100.00
2018-11-11T20:41:12.931Z,100.00
2018-11-11T20:43:43.458Z,100.00
2018-11-11T20:46:16.316Z,100.00
2018-11-11T20:48:47.335Z,100.00
2018-11-11T20:51:26.252Z,100.00
2018-11-11T20:54:13.550Z,100.00
2018-11-11T20:56:48.001Z,100.00
2018-11-11T20:59:24.555Z,100.00
2018-11-11T21:01:59.983Z,100.00
2018-11-11T21:04:29.435Z,100.00
2018-11-11T21:07:04.253Z,100.00
2018-11-11T21:09:55.753Z,99.99
2018-11-11T21:12:25.795Z,100.00
2018-11-11T21:15:08.612Z,100.00
2018-11-11T21:17:38.559Z,100.00
2018-11-11T21:20:09.344Z,100.00
2018-11-11T21:22:38.503Z,100.00
2018-11-11T21:25:08.180Z,100.00
2018-11-11T21:27:55.357Z,100.00
2018-11-11T21:30:29.516Z,100.00
2018-11-11T21:33:03.885Z,100.00
2018-11-11T21:35:35.858Z,100.00
2018-11-11T21:38:21.180Z,100.00
2018-11-11T21:40:54.051Z,100.00
2018-11-11T21:43:27.059Z,100.00
2018-11-11T21:45:57.234Z,100.00
2018-11-11T21:48:26.201Z,100.00
2018-11-11T21:50:55.228Z,100.00
2018-11-11T21:53:32.098Z,100.00
2018-11-11T21:56:18.596Z,100.00
2018-11-11T21:58:53.784Z,100.00
2018-11-11T22:01:23.793Z,100.00
2018-11-11T22:03:52.817Z,100.00
2018-11-11T22:06:25.105Z,100.00
2018-11-11T22:08:57.954Z,100.00
2018-11-11T22:11:26.984Z,100.00
2018-11-11T22:14:01.555Z,100.00
2018-11-11T22:16:34.620Z,100.00
2018-11-11T22:19:16.457Z,100.00
2018-11-11T22:21:45.644Z,100.00
2018-11-11T22:24:18.658Z,100.00
2018-11-11T22:26:54.935Z,100.00
2018-11-11T22:29:28.036Z,100.00
2018-11-11T22:35:02.242Z,100.00
2018-11-11T22:37:32.148Z,100.00
2018-11-11T22:40:08.064Z,100.00
2018-11-11T22:42:48.007Z,100.00
2018-11-11T22:45:16.981Z,100.00
2018-11-11T22:47:46.068Z,100.00
2018-11-11T22:50:17.055Z,100.00
2018-11-11T22:55:51.132Z,100.00
2018-11-11T22:58:22.371Z,100.00
2018-11-11T23:01:03.425Z,100.00
2018-11-11T23:03:32.600Z,100.00
2018-11-11T23:06:02.583Z,100.00
2018-11-11T23:08:33.743Z,100.00
2018-11-11T23:11:13.100Z,100.00
2018-11-11T23:13:43.022Z,100.00
2018-11-11T23:16:22.690Z,100.00
2018-11-11T23:18:53.904Z,100.00
2018-11-11T23:21:22.932Z,100.00
2018-11-11T23:23:51.820Z,100.00
2018-11-11T23:26:21.752Z,100.00
2018-11-11T23:28:56.218Z,100.00
2018-11-11T23:31:43.868Z,100.00
2018-11-11T23:34:14.040Z,100.00
2018-11-11T23:39:41.312Z,100.00
2018-11-11T23:42:11.416Z,100.00
2018-11-11T23:44:40.569Z,100.00
2018-11-11T23:47:09.579Z,100.00
2018-11-11T23:49:38.480Z,100.00
2018-11-11T23:52:07.695Z,100.00
2018-11-11T23:54:36.928Z,100.00
2018-11-11T23:57:05.926Z,100.00
2018-11-11T23:59:37.057Z,100.00
